createdAt,value
2023-02-18T00:01:18.561Z,96858.00
2023-02-18T00:03:21.299Z,96850.84
2023-02-18T00:05:24.404Z,96866.41
2023-02-18T00:07:27.176Z,96837.53
2023-02-18T00:09:29.909Z,96820.97
2023-02-18T00:11:35.987Z,96788.44
2023-02-18T00:13:40.416Z,96860.56
2023-02-18T00:15:43.350Z,96790.53
2023-02-18T00:17:46.110Z,96845.59
2023-02-18T00:19:48.864Z,96839.63
2023-02-18T00:21:51.611Z,96834.97
2023-02-18T00:23:54.684Z,96836.94
2023-02-18T00:26:01.581Z,96836.84
2023-02-18T00:28:04.470Z,96834.38
2023-02-18T00:30:09.807Z,96814.00
2023-02-18T00:32:12.642Z,96839.88
2023-02-18T00:34:15.548Z,96840.00
2023-02-18T00:36:19.807Z,96792.78
2023-02-18T00:38:22.582Z,96841.59
2023-02-18T00:40:25.329Z,96834.00
2023-02-18T00:42:36.122Z,96831.56
2023-02-18T00:44:43.085Z,96837.88
2023-02-18T00:46:49.687Z,96840.09
2023-02-18T00:48:52.655Z,96825.34
2023-02-18T00:50:55.608Z,96829.22
2023-02-18T00:52:59.127Z,96820.84
2023-02-18T00:55:01.901Z,96828.78
2023-02-18T00:57:04.659Z,96815.91
2023-02-18T00:59:07.580Z,96815.78
2023-02-18T01:01:11.497Z,96807.84
2023-02-18T01:03:16.076Z,96810.66
2023-02-18T01:05:18.992Z,96808.91
2023-02-18T01:07:21.713Z,96810.09
2023-02-18T01:09:25.739Z,96815.31
2023-02-18T01:11:28.704Z,96819.88
2023-02-18T01:13:32.176Z,96812.19
2023-02-18T01:15:35.331Z,96818.47
2023-02-18T01:17:39.014Z,96808.94
2023-02-18T01:19:43.134Z,96821.56
2023-02-18T01:21:46.464Z,96824.91
2023-02-18T01:23:50.856Z,96817.72
2023-02-18T01:25:53.783Z,96800.72
2023-02-18T01:27:57.095Z,96805.91
2023-02-18T01:29:59.874Z,96795.50
2023-02-18T01:32:02.688Z,96779.16
2023-02-18T01:34:05.621Z,96790.72
2023-02-18T01:36:11.668Z,96805.91
2023-02-18T01:38:14.561Z,96758.50
2023-02-18T01:40:20.960Z,96788.72
2023-02-18T01:42:26.448Z,96739.16
2023-02-18T01:44:30.417Z,96802.28
2023-02-18T01:46:33.115Z,96797.44
2023-02-18T01:48:40.384Z,96765.91
2023-02-18T01:50:47.286Z,96794.16
2023-02-18T01:52:51.541Z,96795.66
2023-02-18T01:54:57.490Z,96773.03
2023-02-18T01:57:03.839Z,96787.69
2023-02-18T01:59:10.633Z,96801.47
2023-02-18T02:01:13.567Z,96796.78
2023-02-18T02:03:17.650Z,96788.22
2023-02-18T02:05:21.500Z,96788.31
2023-02-18T02:07:27.137Z,96787.22
2023-02-18T02:09:33.810Z,96779.00
2023-02-18T02:11:51.749Z,96801.69
2023-02-18T02:14:16.110Z,96792.13
2023-02-18T02:16:28.556Z,96770.22
2023-02-18T02:18:43.337Z,96773.34
2023-02-18T02:21:29.249Z,96769.59
2023-02-18T02:24:15.653Z,96761.09
2023-02-18T02:26:56.184Z,96776.25
2023-02-18T02:29:29.145Z,96749.22
2023-02-18T02:31:54.663Z,96779.91
2023-02-18T02:34:43.171Z,96776.56
2023-02-18T02:36:54.571Z,96751.44
2023-02-18T02:39:04.533Z,96779.53
2023-02-18T02:41:19.253Z,96763.44
2023-02-18T02:43:31.057Z,96778.69
2023-02-18T02:45:45.095Z,96747.41
2023-02-18T02:47:52.440Z,96762.53
2023-02-18T02:50:03.575Z,96768.56
2023-02-18T02:52:11.448Z,96759.72
2023-02-18T02:54:20.009Z,96761.97
2023-02-18T02:56:25.196Z,96754.03
2023-02-18T02:58:30.246Z,96764.19
2023-02-18T03:00:46.025Z,96772.97
2023-02-18T03:03:11.563Z,96754.94
2023-02-18T03:05:32.477Z,96749.00
2023-02-18T03:07:56.234Z,96762.69
2023-02-18T03:10:16.074Z,96756.28
2023-02-18T03:12:26.474Z,96762.91
2023-02-18T03:14:42.267Z,96768.53
2023-02-18T03:16:50.888Z,96760.13
2023-02-18T03:19:01.058Z,96750.25
2023-02-18T03:21:09.947Z,96733.34
2023-02-18T03:23:19.916Z,96755.81
2023-02-18T03:25:23.603Z,96733.25
2023-02-18T03:27:31.442Z,96739.88
2023-02-18T03:29:35.041Z,96735.38
2023-02-18T03:31:41.423Z,96739.34
2023-02-18T03:33:47.354Z,96713.94
2023-02-18T03:35:51.250Z,96723.41
2023-02-18T03:38:02.799Z,96702.94
2023-02-18T03:40:07.990Z,96729.34
2023-02-18T03:42:10.998Z,96715.78
2023-02-18T03:44:14.616Z,96708.03
2023-02-18T03:46:17.674Z,96695.75
2023-02-18T03:48:20.711Z,96706.72
2023-02-18T03:50:23.515Z,96704.84
2023-02-18T03:52:26.526Z,96706.34
2023-02-18T03:54:30.649Z,96623.50
2023-02-18T03:56:34.028Z,96661.06
2023-02-18T03:58:36.822Z,96688.47
2023-02-18T04:00:39.526Z,96698.59
2023-02-18T04:02:42.981Z,96696.38
2023-02-18T04:04:45.713Z,96703.00
2023-02-18T04:06:48.553Z,96701.91
2023-02-18T04:08:51.978Z,96708.00
2023-02-18T04:10:56.253Z,96704.38
2023-02-18T04:12:58.958Z,96696.31
2023-02-18T04:15:01.712Z,96705.84
2023-02-18T04:17:04.390Z,96704.81
2023-02-18T04:19:07.424Z,96704.22
2023-02-18T04:21:10.369Z,96658.78
2023-02-18T04:23:13.623Z,96698.78
2023-02-18T04:25:16.452Z,96696.94
2023-02-18T04:27:20.550Z,96706.59
2023-02-18T04:29:23.495Z,96664.97
2023-02-18T04:31:26.561Z,96703.19
2023-02-18T04:33:29.305Z,96677.72
2023-02-18T04:35:32.029Z,96704.31
2023-02-18T04:37:34.793Z,96708.69
2023-02-18T04:39:37.864Z,96645.69
2023-02-18T04:41:40.550Z,96690.75
2023-02-18T04:43:44.630Z,96705.88
2023-02-18T04:45:47.338Z,96714.72
2023-02-18T04:47:50.102Z,96711.22
2023-02-18T04:49:52.808Z,96710.03
2023-02-18T04:51:55.529Z,96685.97
2023-02-18T04:53:58.468Z,96678.31
2023-02-18T04:56:01.434Z,96703.78
2023-02-18T04:58:04.130Z,96691.78
2023-02-18T05:00:11.268Z,96666.38
2023-02-18T05:02:13.978Z,96688.88
2023-02-18T05:04:17.435Z,96682.63
2023-02-18T05:06:20.178Z,96676.28
2023-02-18T05:08:23.118Z,96686.94
2023-02-18T05:10:25.816Z,96687.59
2023-02-18T05:12:28.608Z,96693.19
2023-02-18T05:14:31.375Z,96693.25
2023-02-18T05:16:35.523Z,96678.13
2023-02-18T05:18:38.244Z,96690.03
2023-02-18T05:20:40.976Z,96691.91
2023-02-18T05:22:43.722Z,96698.47
2023-02-18T05:24:46.527Z,96699.66
2023-02-18T05:26:49.211Z,96692.34
2023-02-18T05:28:51.989Z,96683.47
2023-02-18T05:30:54.963Z,96687.66
2023-02-18T05:32:59.095Z,96677.50
2023-02-18T05:35:01.755Z,96681.06
2023-02-18T05:37:04.656Z,96678.50
2023-02-18T05:39:07.408Z,96677.47
2023-02-18T05:41:10.423Z,96682.38
2023-02-18T05:43:13.179Z,96693.19
2023-02-18T05:45:14.947Z,96644.44
2023-02-18T05:47:17.748Z,96665.03
2023-02-18T05:49:21.780Z,96686.78
2023-02-18T05:51:24.597Z,96689.69
2023-02-18T05:53:27.363Z,96686.78
2023-02-18T05:55:30.166Z,96679.69
2023-02-18T05:57:32.959Z,96691.69
2023-02-18T05:59:35.717Z,96693.47
2023-02-18T06:01:38.443Z,96678.16
2023-02-18T06:03:41.112Z,96676.09
2023-02-18T06:05:45.153Z,96686.84
2023-02-18T06:07:47.876Z,96663.69
2023-02-18T06:09:50.602Z,96675.63
2023-02-18T06:11:53.298Z,96682.28
2023-02-18T06:13:55.982Z,96692.78
2023-02-18T06:15:58.725Z,96683.69
2023-02-18T06:18:01.438Z,96687.09
2023-02-18T06:20:04.463Z,96684.63
2023-02-18T06:22:09.274Z,96685.22
2023-02-18T06:24:12.019Z,96687.91
2023-02-18T06:26:14.919Z,96674.25
2023-02-18T06:28:17.713Z,96677.06
2023-02-18T06:30:20.710Z,96677.06
2023-02-18T06:32:23.545Z,96672.06
2023-02-18T06:34:27.748Z,96679.91
2023-02-18T06:36:30.420Z,96673.97
2023-02-18T06:38:34.674Z,96668.81
2023-02-18T06:40:37.397Z,96664.50
2023-02-18T06:42:40.194Z,96624.38
2023-02-18T06:44:42.873Z,96612.94
2023-02-18T06:46:45.870Z,96680.88
2023-02-18T06:48:49.046Z,96682.53
2023-02-18T06:50:52.068Z,96674.13
2023-02-18T06:52:54.702Z,96668.56
2023-02-18T06:54:58.735Z,96669.84
2023-02-18T06:57:01.801Z,96554.88
2023-02-18T06:59:04.506Z,96671.78
2023-02-18T07:01:07.268Z,96666.06
2023-02-18T07:03:10.027Z,96667.72
2023-02-18T07:05:12.729Z,96641.19
2023-02-18T07:07:15.512Z,96677.09
2023-02-18T07:09:18.265Z,96675.59
2023-02-18T07:11:22.359Z,96686.63
2023-02-18T07:13:25.021Z,96683.41
2023-02-18T07:15:27.992Z,96668.22
2023-02-18T07:17:30.675Z,96681.91
2023-02-18T07:19:33.366Z,96693.22
2023-02-18T07:21:36.041Z,96685.53
2023-02-18T07:23:38.734Z,96682.94
2023-02-18T07:25:41.526Z,96693.00
2023-02-18T07:27:45.554Z,96697.91
2023-02-18T07:29:48.716Z,96691.47
2023-02-18T07:31:51.522Z,96689.03
2023-02-18T07:33:55.007Z,96632.31
2023-02-18T07:35:58.904Z,96694.53
2023-02-18T07:38:03.143Z,96680.50
2023-02-18T07:40:06.985Z,96693.94
2023-02-18T07:42:10.320Z,96699.66
2023-02-18T07:44:15.273Z,96669.50
2023-02-18T07:46:18.052Z,96679.44
2023-02-18T07:48:20.911Z,96583.94
2023-02-18T07:50:23.610Z,96690.28
2023-02-18T07:52:27.428Z,96686.56
2023-02-18T07:54:30.158Z,96676.28
2023-02-18T07:56:32.865Z,96675.34
2023-02-18T07:58:38.099Z,96679.53
2023-02-18T08:00:42.180Z,96680.47
2023-02-18T08:02:44.908Z,96681.66
2023-02-18T08:04:49.062Z,96668.19
2023-02-18T08:06:52.194Z,96674.13
2023-02-18T08:08:54.989Z,96661.25
2023-02-18T08:11:01.045Z,96665.66
2023-02-18T08:13:05.731Z,96666.50
2023-02-18T08:15:09.093Z,96655.75
2023-02-18T08:17:13.198Z,96664.28
2023-02-18T08:19:15.913Z,96662.16
2023-02-18T08:21:19.941Z,96669.31
2023-02-18T08:23:25.535Z,96656.13
2023-02-18T08:25:30.059Z,96657.38
2023-02-18T08:27:32.832Z,96659.06
2023-02-18T08:29:35.509Z,96656.75
2023-02-18T08:31:38.341Z,96666.28
2023-02-18T08:33:42.678Z,96666.03
2023-02-18T08:35:46.457Z,96681.00
2023-02-18T08:37:52.694Z,96661.44
2023-02-18T08:39:56.453Z,96668.66
2023-02-18T08:41:59.154Z,96655.31
2023-02-18T08:44:01.896Z,96664.63
2023-02-18T08:46:05.505Z,96665.06
2023-02-18T08:48:16.351Z,96661.47
2023-02-18T08:50:26.149Z,96667.75
2023-02-18T08:52:28.925Z,96647.03
2023-02-18T08:54:31.981Z,96661.03
2023-02-18T08:56:34.957Z,96657.88
2023-02-18T08:58:37.786Z,96657.69
2023-02-18T09:00:41.647Z,96666.06
2023-02-18T09:02:44.725Z,96570.41
2023-02-18T09:04:47.409Z,96681.75
2023-02-18T09:06:51.529Z,96670.41
2023-02-18T09:08:54.331Z,96557.22
2023-02-18T09:10:58.471Z,96587.94
2023-02-18T09:13:01.221Z,96652.97
2023-02-18T09:15:04.896Z,96655.31
2023-02-18T09:17:07.653Z,96647.59
2023-02-18T09:19:10.615Z,96643.66
2023-02-18T09:21:14.672Z,96651.19
2023-02-18T09:23:18.909Z,96640.13
2023-02-18T09:25:21.656Z,96640.16
2023-02-18T09:27:24.443Z,96622.16
2023-02-18T09:29:27.284Z,96620.50
2023-02-18T09:31:30.145Z,96614.53
2023-02-18T09:33:33.062Z,96624.44
2023-02-18T09:35:40.267Z,96608.38
2023-02-18T09:37:42.977Z,96605.44
2023-02-18T09:39:48.399Z,96609.06
2023-02-18T09:41:53.072Z,96597.28
2023-02-18T09:43:58.506Z,96607.53
2023-02-18T09:46:04.334Z,96609.88
2023-02-18T09:48:07.569Z,96612.34
2023-02-18T09:50:21.237Z,96611.09
2023-02-18T09:52:29.829Z,96571.44
2023-02-18T09:54:32.648Z,96543.28
2023-02-18T09:56:40.616Z,96568.22
2023-02-18T09:58:45.504Z,96591.38
2023-02-18T10:00:51.154Z,96598.88
2023-02-18T10:02:58.987Z,96589.44
2023-02-18T10:05:02.026Z,96588.66
2023-02-18T10:07:06.653Z,96576.84
2023-02-18T10:09:17.839Z,96594.25
2023-02-18T10:11:25.523Z,96598.47
2023-02-18T10:13:33.102Z,96545.22
2023-02-18T10:15:38.001Z,96605.59
2023-02-18T10:17:40.803Z,96628.56
2023-02-18T10:19:45.162Z,96571.81
2023-02-18T10:21:49.095Z,96622.75
2023-02-18T10:23:58.860Z,96621.50
2023-02-18T10:26:06.209Z,96611.19
2023-02-18T10:28:11.435Z,96616.84
2023-02-18T10:30:24.828Z,96608.50
2023-02-18T10:32:32.905Z,96616.72
2023-02-18T10:34:45.032Z,96610.22
2023-02-18T10:36:53.722Z,96599.63
2023-02-18T10:39:35.297Z,96595.78
2023-02-18T10:41:47.172Z,96567.41
2023-02-18T10:43:57.128Z,96592.34
2023-02-18T10:46:08.713Z,96615.59
2023-02-18T10:48:28.979Z,96591.88
2023-02-18T10:50:36.303Z,96549.84
2023-02-18T10:52:43.186Z,96594.88
2023-02-18T10:54:51.705Z,96510.09
2023-02-18T10:57:00.285Z,96592.13
2023-02-18T10:59:13.542Z,96594.06
2023-02-18T11:01:20.812Z,96610.06
2023-02-18T11:03:25.303Z,96599.44
2023-02-18T11:05:29.170Z,96603.19
2023-02-18T11:07:34.694Z,96603.59
2023-02-18T11:09:45.706Z,96603.19
2023-02-18T11:11:53.702Z,96601.03
2023-02-18T11:14:06.374Z,96588.00
2023-02-18T11:16:09.504Z,96599.44
2023-02-18T11:18:30.168Z,96550.16
2023-02-18T11:20:34.768Z,96588.75
2023-02-18T11:22:39.795Z,96580.50
2023-02-18T11:24:48.141Z,96578.31
2023-02-18T11:26:50.905Z,96581.50
2023-02-18T11:29:00.434Z,96568.91
2023-02-18T11:31:05.149Z,96573.81
2023-02-18T11:33:10.074Z,96566.88
2023-02-18T11:35:20.795Z,96566.06
2023-02-18T11:37:24.341Z,96603.84
2023-02-18T11:39:29.502Z,96559.13
2023-02-18T11:41:37.024Z,96431.78
2023-02-18T11:43:44.485Z,96561.72
2023-02-18T11:45:48.319Z,96533.31
2023-02-18T11:48:00.456Z,96588.84
2023-02-18T11:50:17.008Z,96564.59
2023-02-18T11:52:26.120Z,96549.66
2023-02-18T11:54:31.271Z,96558.31
2023-02-18T11:56:35.302Z,96558.78
2023-02-18T11:58:41.502Z,96459.63
2023-02-18T12:00:46.843Z,96507.22
2023-02-18T12:02:50.140Z,96514.94
2023-02-18T12:04:59.897Z,96533.66
2023-02-18T12:07:14.302Z,96501.09
2023-02-18T12:09:27.476Z,96507.81
2023-02-18T12:11:35.053Z,96496.44
2023-02-18T12:13:42.234Z,96503.69
2023-02-18T12:15:55.319Z,96509.91
2023-02-18T12:18:17.221Z,96497.22
2023-02-18T12:20:44.689Z,96501.75
2023-02-18T12:22:56.664Z,96511.97
2023-02-18T12:25:22.584Z,96513.59
2023-02-18T12:27:31.516Z,96524.53
2023-02-18T12:29:54.057Z,96532.09
2023-02-18T12:32:11.561Z,96534.19
2023-02-18T12:34:36.134Z,96498.09
2023-02-18T12:36:51.641Z,96515.03
2023-02-18T12:39:10.821Z,96522.22
2023-02-18T12:41:32.159Z,96474.09
2023-02-18T12:43:48.067Z,96486.22
2023-02-18T12:46:11.083Z,96523.63
2023-02-18T12:48:30.713Z,96518.41
2023-02-18T12:51:12.281Z,96521.81
2023-02-18T12:53:35.137Z,96482.16
2023-02-18T12:55:57.898Z,96463.16
2023-02-18T12:58:11.257Z,96511.56
2023-02-18T13:00:42.383Z,96522.41
2023-02-18T13:03:09.367Z,96508.69
2023-02-18T13:05:32.957Z,96523.38
2023-02-18T13:08:00.163Z,96520.44
2023-02-18T13:10:22.899Z,96494.06
2023-02-18T13:12:32.189Z,96535.41
2023-02-18T13:14:44.566Z,96502.13
2023-02-18T13:16:50.820Z,96501.72
2023-02-18T13:19:02.331Z,96523.00
2023-02-18T13:21:07.682Z,96528.41
2023-02-18T13:23:18.268Z,96522.50
2023-02-18T13:25:22.377Z,96512.88
2023-02-18T13:27:33.630Z,96518.34
2023-02-18T13:29:43.491Z,96498.63
2023-02-18T13:31:53.638Z,96509.31
2023-02-18T13:34:04.720Z,96501.28
2023-02-18T13:36:17.331Z,96515.03
2023-02-18T13:38:52.213Z,96508.53
2023-02-18T13:40:57.339Z,96496.81
2023-02-18T13:43:19.391Z,96496.59
2023-02-18T13:45:29.807Z,96508.22
2023-02-18T13:47:43.272Z,96525.81
2023-02-18T13:49:48.149Z,96507.59
2023-02-18T13:51:52.803Z,96505.03
2023-02-18T13:54:03.893Z,96508.75
2023-02-18T13:56:10.207Z,96514.63
2023-02-18T13:58:18.459Z,96503.22
2023-02-18T14:00:24.043Z,96521.25
2023-02-18T14:02:36.605Z,96508.28
2023-02-18T14:04:53.618Z,96504.34
2023-02-18T14:07:32.188Z,96507.03
2023-02-18T14:09:41.803Z,96434.06
2023-02-18T14:11:49.339Z,96492.69
2023-02-18T14:13:56.225Z,96543.72
2023-02-18T14:16:01.885Z,96505.97
2023-02-18T14:18:11.841Z,96501.53
2023-02-18T14:20:44.849Z,96490.31
2023-02-18T14:22:49.132Z,96412.03
2023-02-18T14:25:01.203Z,96488.78
2023-02-18T14:27:15.536Z,96500.28
2023-02-18T14:29:27.683Z,96477.25
2023-02-18T14:31:52.953Z,96495.78
2023-02-18T14:34:23.405Z,96468.50
2023-02-18T14:36:33.766Z,96480.81
2023-02-18T14:38:47.700Z,96480.09
2023-02-18T14:41:26.641Z,96474.72
2023-02-18T14:43:49.713Z,96483.03
2023-02-18T14:46:06.606Z,96472.59
2023-02-18T14:48:31.057Z,96465.44
2023-02-18T14:50:37.953Z,96463.81
2023-02-18T14:52:45.092Z,96472.63
2023-02-18T14:54:47.970Z,96470.91
2023-02-18T14:56:58.535Z,96462.94
2023-02-18T14:59:05.555Z,96463.38
2023-02-18T15:01:17.154Z,96465.84
2023-02-18T15:03:22.334Z,96487.84
2023-02-18T15:05:27.013Z,96450.31
2023-02-18T15:07:31.079Z,96463.91
2023-02-18T15:09:33.974Z,96446.50
2023-02-18T15:11:39.881Z,96453.06
2023-02-18T15:13:44.992Z,96467.97
2023-02-18T15:15:51.606Z,96453.34
2023-02-18T15:17:54.823Z,96449.28
2023-02-18T15:20:00.266Z,96507.44
2023-02-18T15:22:03.144Z,96466.88
2023-02-18T15:24:10.320Z,96464.00
2023-02-18T15:26:15.693Z,96421.88
2023-02-18T15:28:24.414Z,96476.53
2023-02-18T15:30:29.713Z,96432.59
2023-02-18T15:32:33.820Z,96466.97
2023-02-18T15:34:39.031Z,96471.25
2023-02-18T15:36:41.765Z,96474.50
2023-02-18T15:38:44.542Z,96474.84
2023-02-18T15:40:53.128Z,96477.03
2023-02-18T15:42:58.671Z,96490.91
2023-02-18T15:45:11.311Z,96479.00
2023-02-18T15:47:14.635Z,96478.41
2023-02-18T15:49:21.677Z,96478.75
2023-02-18T15:51:28.776Z,96476.19
2023-02-18T15:53:37.008Z,96420.69
2023-02-18T15:55:42.012Z,96465.66
2023-02-18T15:57:46.270Z,96451.25
2023-02-18T15:59:57.868Z,96465.06
2023-02-18T16:02:12.828Z,96473.50
2023-02-18T16:04:16.688Z,96392.47
2023-02-18T16:06:22.549Z,96437.97
2023-02-18T16:08:28.154Z,96416.66
2023-02-18T16:10:46.615Z,96422.16
2023-02-18T16:12:55.100Z,96466.06
2023-02-18T16:14:59.671Z,96468.19
2023-02-18T16:17:15.469Z,96360.16
2023-02-18T16:19:26.098Z,96458.97
2023-02-18T16:21:34.440Z,96457.50
2023-02-18T16:23:43.378Z,96451.28
2023-02-18T16:25:48.679Z,96459.69
2023-02-18T16:27:55.986Z,96449.25
2023-02-18T16:30:02.743Z,96442.72
2023-02-18T16:32:06.022Z,96468.34
2023-02-18T16:34:09.096Z,96440.38
2023-02-18T16:36:15.981Z,96463.13
2023-02-18T16:38:20.948Z,96466.41
2023-02-18T16:40:28.128Z,96474.63
2023-02-18T16:42:30.859Z,96456.28
2023-02-18T16:44:35.058Z,96259.81
2023-02-18T16:46:38.007Z,96456.69
2023-02-18T16:48:42.615Z,96458.06
2023-02-18T16:50:45.709Z,96466.25
2023-02-18T16:52:49.305Z,96481.72
2023-02-18T16:54:54.382Z,96476.34
2023-02-18T16:56:57.122Z,96464.28
2023-02-18T16:58:59.847Z,96470.56
2023-02-18T17:01:04.185Z,96400.25
2023-02-18T17:03:07.381Z,96472.59
2023-02-18T17:05:25.742Z,96455.88
2023-02-18T17:07:32.564Z,96465.66
2023-02-18T17:09:35.624Z,96459.28
2023-02-18T17:11:38.353Z,96463.22
2023-02-18T17:13:41.073Z,96398.53
2023-02-18T17:15:46.405Z,96459.69
2023-02-18T17:17:51.831Z,96480.94
2023-02-18T17:19:54.607Z,96479.47
2023-02-18T17:21:57.377Z,96474.47
2023-02-18T17:24:00.125Z,96480.91
2023-02-18T17:26:02.890Z,96475.44
2023-02-18T17:28:06.953Z,96306.06
2023-02-18T17:30:11.274Z,96483.75
2023-02-18T17:32:14.988Z,96485.22
2023-02-18T17:34:23.463Z,96484.34
2023-02-18T17:36:26.900Z,96437.34
2023-02-18T17:38:29.853Z,96412.22
2023-02-18T17:40:32.806Z,96464.34
2023-02-18T17:42:35.959Z,96385.06
2023-02-18T17:44:40.529Z,96492.00
2023-02-18T17:46:43.705Z,96493.53
2023-02-18T17:48:47.920Z,96505.53
2023-02-18T17:50:52.744Z,96487.28
2023-02-18T17:52:56.250Z,96445.19
2023-02-18T17:54:58.925Z,96502.94
2023-02-18T17:57:01.644Z,96497.47
2023-02-18T17:59:04.384Z,96438.22
2023-02-18T18:01:07.183Z,96501.13
2023-02-18T18:03:11.308Z,96517.38
2023-02-18T18:05:18.988Z,96470.88
2023-02-18T18:07:23.020Z,96498.00
2023-02-18T18:09:25.884Z,96500.28
2023-02-18T18:11:28.636Z,96498.34
2023-02-18T18:13:33.017Z,96458.22
2023-02-18T18:15:39.357Z,96515.88
2023-02-18T18:17:42.382Z,96518.56
2023-02-18T18:19:45.091Z,96517.34
2023-02-18T18:21:48.844Z,96518.56
2023-02-18T18:23:52.899Z,96509.75
2023-02-18T18:25:56.950Z,96517.19
2023-02-18T18:27:59.680Z,96508.16
2023-02-18T18:30:04.880Z,96522.66
2023-02-18T18:32:07.624Z,96523.06
2023-02-18T18:34:10.705Z,96521.09
2023-02-18T18:36:13.335Z,96516.03
2023-02-18T18:38:15.986Z,96512.84
2023-02-18T18:40:21.785Z,96525.06
2023-02-18T18:42:24.455Z,96520.53
2023-02-18T18:44:27.244Z,96527.13
2023-02-18T18:46:30.290Z,96520.34
2023-02-18T18:48:33.047Z,96515.84
2023-02-18T18:50:37.594Z,96517.56
2023-02-18T18:52:43.401Z,96522.22
2023-02-18T18:54:46.092Z,96510.94
2023-02-18T18:56:50.522Z,96496.34
2023-02-18T18:58:53.237Z,96522.63
2023-02-18T19:00:57.652Z,96527.19
2023-02-18T19:03:01.072Z,96523.97
2023-02-18T19:05:05.257Z,96520.72
2023-02-18T19:07:07.977Z,96507.38
2023-02-18T19:09:10.982Z,96505.44
2023-02-18T19:11:14.286Z,96527.19
2023-02-18T19:13:20.520Z,96525.06
2023-02-18T19:15:24.317Z,96453.72
2023-02-18T19:17:26.983Z,96437.88
2023-02-18T19:19:30.935Z,96540.25
2023-02-18T19:21:33.613Z,96417.38
2023-02-18T19:23:37.311Z,96497.03
2023-02-18T19:25:40.698Z,96468.88
2023-02-18T19:27:45.423Z,96512.31
2023-02-18T19:29:54.187Z,96520.22
2023-02-18T19:31:56.875Z,96516.78
2023-02-18T19:33:59.568Z,96516.09
2023-02-18T19:36:07.021Z,96504.00
2023-02-18T19:38:10.329Z,96522.91
2023-02-18T19:40:15.092Z,96414.81
2023-02-18T19:42:17.953Z,96484.44
2023-02-18T19:44:21.011Z,96521.84
2023-02-18T19:46:25.142Z,96516.97
2023-02-18T19:48:27.927Z,96519.00
2023-02-18T19:50:31.580Z,96498.44
2023-02-18T19:52:34.632Z,96493.75
2023-02-18T19:54:37.391Z,96521.00
2023-02-18T19:56:40.425Z,96496.13
2023-02-18T19:58:43.250Z,96524.72
2023-02-18T20:00:45.948Z,96532.44
2023-02-18T20:02:50.600Z,96530.09
2023-02-18T20:04:54.642Z,96537.22
2023-02-18T20:06:57.605Z,96527.41
2023-02-18T20:09:00.251Z,96527.66
2023-02-18T20:11:03.166Z,96529.41
2023-02-18T20:13:11.109Z,96520.28
2023-02-18T20:15:13.892Z,96545.06
2023-02-18T20:17:16.704Z,96522.88
2023-02-18T20:19:23.387Z,96532.31
2023-02-18T20:21:26.789Z,96515.50
2023-02-18T20:23:29.450Z,96525.56
2023-02-18T20:25:32.230Z,96486.66
2023-02-18T20:27:37.581Z,96487.72
2023-02-18T20:29:42.413Z,96459.94
2023-02-18T20:31:45.327Z,96517.25
2023-02-18T20:33:48.031Z,96516.06
2023-02-18T20:35:58.463Z,96522.03
2023-02-18T20:38:01.437Z,96528.09
2023-02-18T20:40:04.758Z,96521.56
2023-02-18T20:42:15.835Z,96516.22
2023-02-18T20:44:20.879Z,96524.59
2023-02-18T20:46:24.741Z,96527.06
2023-02-18T20:48:27.474Z,96533.47
2023-02-18T20:50:30.146Z,96521.56
2023-02-18T20:52:34.867Z,96520.41
2023-02-18T20:54:38.228Z,96513.28
2023-02-18T20:56:41.221Z,96506.84
2023-02-18T20:58:43.941Z,96494.13
2023-02-18T21:00:46.660Z,96502.06
2023-02-18T21:02:49.453Z,96499.72
2023-02-18T21:04:52.223Z,96476.28
2023-02-18T21:06:55.359Z,96489.47
2023-02-18T21:08:59.426Z,96492.84
2023-02-18T21:11:03.965Z,96449.06
2023-02-18T21:13:06.630Z,96490.97
2023-02-18T21:15:10.083Z,96482.69
2023-02-18T21:17:12.776Z,96487.47
2023-02-18T21:19:17.644Z,96486.19
2023-02-18T21:21:22.839Z,96411.25
2023-02-18T21:23:25.537Z,96505.09
2023-02-18T21:25:29.523Z,96490.75
2023-02-18T21:27:32.213Z,96474.75
2023-02-18T21:29:35.036Z,96467.41
2023-02-18T21:31:40.261Z,96481.63
2023-02-18T21:33:43.047Z,96442.75
2023-02-18T21:35:45.739Z,96494.34
2023-02-18T21:37:48.420Z,96496.81
2023-02-18T21:39:51.060Z,96491.81
2023-02-18T21:41:57.052Z,96460.25
2023-02-18T21:43:59.855Z,96486.66
2023-02-18T21:46:10.222Z,96459.31
2023-02-18T21:48:30.289Z,96448.69
2023-02-18T21:50:32.980Z,96494.81
2023-02-18T21:52:35.658Z,96420.38
2023-02-18T21:54:40.313Z,96491.66
2023-02-18T21:56:43.047Z,96489.59
2023-02-18T21:58:47.038Z,96507.78
2023-02-18T22:00:57.489Z,96486.66
2023-02-18T22:03:00.186Z,96465.19
2023-02-18T22:05:03.181Z,96500.44
2023-02-18T22:07:06.217Z,96493.66
2023-02-18T22:09:08.918Z,96486.41
2023-02-18T22:11:11.827Z,96486.75
2023-02-18T22:13:14.607Z,96485.94
2023-02-18T22:15:18.902Z,96484.66
2023-02-18T22:17:22.522Z,96495.75
2023-02-18T22:19:25.573Z,96477.44
2023-02-18T22:21:28.271Z,96486.19
2023-02-18T22:23:32.545Z,96498.31
2023-02-18T22:25:36.536Z,96480.25
2023-02-18T22:27:39.288Z,96477.44
2023-02-18T22:29:42.434Z,96483.50
2023-02-18T22:31:47.083Z,96469.03
2023-02-18T22:33:51.511Z,96480.94
2023-02-18T22:35:54.318Z,96477.31
2023-02-18T22:37:57.447Z,96472.75
2023-02-18T22:40:00.162Z,96466.13
2023-02-18T22:42:02.894Z,96471.81
2023-02-18T22:44:08.556Z,96471.47
2023-02-18T22:46:13.787Z,96444.50
2023-02-18T22:48:19.956Z,96456.66
2023-02-18T22:50:22.867Z,96469.59
2023-02-18T22:52:25.571Z,96461.78
2023-02-18T22:54:28.317Z,96459.34
2023-02-18T22:56:31.723Z,96440.44
2023-02-18T22:58:35.313Z,96461.09
2023-02-18T23:00:38.032Z,96456.91
2023-02-18T23:02:40.724Z,96455.84
2023-02-18T23:04:45.025Z,96441.25
2023-02-18T23:06:48.162Z,96442.75
2023-02-18T23:08:51.465Z,96458.50
2023-02-18T23:11:01.115Z,96466.44
2023-02-18T23:13:03.848Z,96456.41
2023-02-18T23:15:06.944Z,96459.69
2023-02-18T23:17:17.664Z,96436.22
2023-02-18T23:19:20.506Z,96453.50
2023-02-18T23:21:24.580Z,96455.94
2023-02-18T23:23:27.326Z,96444.75
2023-02-18T23:25:30.116Z,96415.13
2023-02-18T23:27:33.868Z,96441.00
2023-02-18T23:29:37.153Z,96439.59
2023-02-18T23:31:40.227Z,96442.38
2023-02-18T23:33:43.187Z,96441.00
2023-02-18T23:35:46.109Z,96278.56
2023-02-18T23:38:05.053Z,96435.88
2023-02-18T23:40:09.127Z,96444.50
2023-02-18T23:42:13.134Z,96441.59
2023-02-18T23:44:17.495Z,96447.06
2023-02-18T23:46:22.428Z,96441.22
2023-02-18T23:48:25.178Z,96414.25
2023-02-18T23:50:27.908Z,96412.72
2023-02-18T23:52:30.629Z,96441.44
2023-02-18T23:54:34.801Z,96435.69
2023-02-18T23:56:38.186Z,96433.00
2023-02-18T23:58:41.868Z,96398.81
